Time;durP1;ratioP1;P1;durP2;ratioP2;P2;SDS_P1;SDS_P2;PMS_P1;PMS_P2;Temp;Humidity;BMP_temperature;BMP_pressure;BME280_temperature;BME280_humidity;BME280_pressure;Samples;Min_cycle;Max_cycle;Signal;HPM_P1;HPM_P2
2020/12/25 00:01:32;;;;;;;29.13;20.95;;;11.40;99.90;;;;;;5090411;28;20065;-63
2020/12/25 00:03:59;;;;;;;30.10;22.63;;;11.40;99.90;;;;;;5086524;28;20032;-62
2020/12/25 00:06:34;;;;;;;30.25;22.55;;;11.30;99.90;;;;;;5104855;27;20476;-62
2020/12/25 00:09:00;;;;;;;30.63;23.95;;;11.40;99.90;;;;;;5101718;28;20120;-62
2020/12/25 00:11:30;;;;;;;31.48;21.92;;;11.40;99.90;;;;;;5096185;28;20032;-62
2020/12/25 00:13:55;;;;;;;28.17;21.90;;;11.30;99.90;;;;;;5096244;28;20096;-61
2020/12/25 00:16:28;;;;;;;29.80;22.08;;;11.40;99.90;;;;;;5096397;28;20040;-62
2020/12/25 00:18:54;;;;;;;25.52;21.58;;;11.40;99.90;;;;;;5093975;28;20134;-62
2020/12/25 00:21:20;;;;;;;25.77;21.17;;;11.30;99.90;;;;;;5098057;28;20119;-62
2020/12/25 00:23:46;;;;;;;27.08;21.27;;;11.30;99.90;;;;;;5099736;27;20036;-62
2020/12/25 00:26:33;;;;;;;30.58;22.65;;;11.40;99.90;;;;;;5106416;28;20036;-62
2020/12/25 00:29:00;;;;;;;31.70;21.52;;;11.40;99.90;;;;;;5041811;28;20048;-62
2020/12/25 00:31:34;;;;;;;28.85;21.30;;;11.40;99.90;;;;;;5044648;28;20164;-62
2020/12/25 00:34:06;;;;;;;27.40;19.92;;;11.40;99.90;;;;;;5038687;28;20041;-62
2020/12/25 00:36:40;;;;;;;25.13;21.05;;;11.30;99.90;;;;;;5043790;28;20053;-62
2020/12/25 00:39:11;;;;;;;25.63;21.02;;;11.30;99.90;;;;;;5037581;28;20071;-61
2020/12/25 00:41:41;;;;;;;24.63;19.20;;;11.30;99.90;;;;;;5045829;28;20044;-62
2020/12/25 00:44:07;;;;;;;23.58;19.33;;;11.20;99.90;;;;;;5037714;28;20036;-63
2020/12/25 00:46:33;;;;;;;22.38;17.65;;;11.20;99.90;;;;;;5047204;28;20063;-62
2020/12/25 00:48:58;;;;;;;22.27;18.58;;;11.30;99.90;;;;;;5041403;28;20100;-62
2020/12/25 00:51:24;;;;;;;21.77;18.38;;;11.30;99.90;;;;;;5046888;28;20032;-62
2020/12/25 00:53:50;;;;;;;22.73;19.00;;;11.30;99.90;;;;;;5039811;28;20288;-63
2020/12/25 00:56:16;;;;;;;23.75;19.02;;;11.30;99.90;;;;;;5026315;28;20143;-62
2020/12/25 00:58:42;;;;;;;23.02;18.60;;;11.30;99.90;;;;;;5032249;28;20068;-63
2020/12/25 01:01:09;;;;;;;21.45;17.48;;;11.30;99.90;;;;;;5103040;28;20115;-61
2020/12/25 01:03:36;;;;;;;22.67;17.88;;;11.40;99.90;;;;;;5098439;27;20036;-62
2020/12/25 01:06:07;;;;;;;19.98;17.52;;;11.40;99.90;;;;;;5084802;28;20032;-62
2020/12/25 01:08:33;;;;;;;17.80;15.50;;;11.40;99.90;;;;;;5097206;28;20417;-62
2020/12/25 01:10:58;;;;;;;19.67;16.65;;;11.40;99.90;;;;;;5082427;28;20048;-62
2020/12/25 01:13:45;;;;;;;18.42;16.52;;;11.50;99.90;;;;;;5087359;28;20040;-62
2020/12/25 01:16:17;;;;;;;17.25;15.48;;;11.50;99.90;;;;;;5038997;28;20038;-62
2020/12/25 01:18:46;;;;;;;17.63;15.57;;;11.40;99.90;;;;;;5086524;28;20489;-61
2020/12/25 01:21:13;;;;;;;17.73;15.88;;;11.40;99.90;;;;;;5098143;27;20050;-62
2020/12/25 01:23:39;;;;;;;15.63;13.98;;;11.40;99.90;;;;;;5097418;28;20056;-62
2020/12/25 01:26:06;;;;;;;16.73;14.50;;;11.50;99.90;;;;;;5093520;28;20032;-62
2020/12/25 01:28:33;;;;;;;17.33;15.38;;;11.50;99.90;;;;;;5100717;28;20402;-62
2020/12/25 01:30:58;;;;;;;15.80;14.20;;;11.40;99.90;;;;;;5098322;28;20044;-62
2020/12/25 01:33:24;;;;;;;16.60;14.35;;;11.50;99.90;;;;;;5099600;28;21149;-62
2020/12/25 01:35:50;;;;;;;17.75;14.27;;;11.50;99.90;;;;;;5094617;27;20135;-61
2020/12/25 01:38:16;;;;;;;15.75;13.90;;;11.50;99.90;;;;;;5101047;28;20108;-62
2020/12/25 01:40:41;;;;;;;15.95;13.93;;;11.50;99.40;;;;;;5097747;28;20047;-61
2020/12/25 01:43:07;;;;;;;19.85;14.85;;;11.50;99.90;;;;;;5097863;28;20039;-61
2020/12/25 01:45:32;;;;;;;18.23;15.75;;;11.50;99.90;;;;;;5095235;28;20468;-62
2020/12/25 01:47:59;;;;;;;19.20;16.23;;;11.30;99.90;;;;;;5099054;28;20039;-62
2020/12/25 01:50:27;;;;;;;19.42;16.27;;;11.30;99.90;;;;;;5100606;27;21091;-61
2020/12/25 01:52:54;;;;;;;20.00;16.90;;;11.40;99.90;;;;;;5098828;28;20054;-62
2020/12/25 01:55:24;;;;;;;20.83;17.05;;;11.10;99.90;;;;;;5099988;28;20036;-62
2020/12/25 01:57:59;;;;;;;22.58;18.42;;;11.20;99.90;;;;;;5094428;28;20028;-62
2020/12/25 02:00:27;;;;;;;22.98;18.23;;;11.20;99.90;;;;;;5085679;28;20048;-62
2020/12/25 02:02:53;;;;;;;22.40;18.40;;;11.30;99.90;;;;;;5097766;28;20043;-62
2020/12/25 02:05:18;;;;;;;22.90;18.83;;;11.30;99.90;;;;;;5098355;27;20443;-61
2020/12/25 02:07:45;;;;;;;22.08;18.17;;;11.30;99.90;;;;;;5090877;28;20040;-62
2020/12/25 02:10:11;;;;;;;22.35;18.23;;;11.30;99.90;;;;;;5096565;28;20039;-62
2020/12/25 02:12:37;;;;;;;23.45;18.65;;;11.10;99.90;;;;;;5091208;28;20036;-62
2020/12/25 02:15:08;;;;;;;22.88;16.85;;;11.10;99.90;;;;;;5088152;28;20040;-63
2020/12/25 02:17:33;;;;;;;23.40;18.45;;;11.10;99.90;;;;;;5092893;28;20392;-62
2020/12/25 02:20:02;;;;;;;22.92;18.17;;;11.10;99.90;;;;;;5102364;28;20047;-62
2020/12/25 02:22:29;;;;;;;22.70;18.23;;;11.20;99.90;;;;;;5100215;28;20118;-62
2020/12/25 02:24:55;;;;;;;22.50;18.42;;;11.20;99.90;;;;;;5100421;28;20031;-62
2020/12/25 02:27:21;;;;;;;20.52;17.80;;;11.30;99.90;;;;;;5096389;28;20047;-62
2020/12/25 02:29:47;;;;;;;22.60;17.33;;;11.20;99.90;;;;;;5099225;28;20047;-62
2020/12/25 02:32:12;;;;;;;19.05;16.90;;;11.20;99.90;;;;;;5099168;28;20035;-62
2020/12/25 02:34:38;;;;;;;21.13;16.77;;;11.20;99.90;;;;;;5092506;27;20056;-60
2020/12/25 02:37:03;;;;;;;21.13;17.27;;;11.30;99.90;;;;;;5098773;28;20492;-62
2020/12/25 02:39:29;;;;;;;22.00;18.58;;;11.20;99.90;;;;;;5097349;28;20047;-62
2020/12/25 02:48:38;;;;;;;20.58;17.55;;;11.40;99.90;;;;;;5062414;28;20463;-62
2020/12/25 02:51:04;;;;;;;21.63;17.77;;;11.20;99.90;;;;;;5102809;28;20130;-62
2020/12/25 02:53:29;;;;;;;19.50;16.88;;;11.20;99.90;;;;;;5089244;28;20090;-62
2020/12/25 02:55:55;;;;;;;22.85;18.23;;;11.30;99.90;;;;;;5097277;28;20040;-62
2020/12/25 02:58:21;;;;;;;22.95;17.77;;;11.40;99.90;;;;;;5091209;28;20024;-62
2020/12/25 03:00:46;;;;;;;20.27;17.05;;;11.30;99.90;;;;;;5089804;28;20068;-61
2020/12/25 03:03:12;;;;;;;19.45;16.60;;;11.30;99.90;;;;;;5095538;28;20035;-62
2020/12/25 03:05:38;;;;;;;18.70;16.65;;;11.40;99.90;;;;;;5082369;28;20081;-62
2020/12/25 03:08:03;;;;;;;22.08;18.15;;;11.40;99.90;;;;;;5097356;28;20442;-61
2020/12/25 03:10:29;;;;;;;22.80;18.60;;;11.40;99.90;;;;;;5097582;28;20046;-62
2020/12/25 03:19:38;;;;;;;21.23;17.42;;;11.30;99.70;;;;;;5068664;28;20082;-62
2020/12/25 03:22:04;;;;;;;21.38;17.13;;;11.30;99.90;;;;;;5093000;28;20055;-62
2020/12/25 03:24:29;;;;;;;23.02;18.00;;;11.30;99.90;;;;;;5095864;28;20048;-63
2020/12/25 03:26:55;;;;;;;21.98;18.10;;;11.20;99.40;;;;;;5097712;28;20052;-62
2020/12/25 03:29:21;;;;;;;21.48;18.00;;;11.20;99.90;;;;;;5098822;28;20388;-62
2020/12/25 03:31:47;;;;;;;19.65;16.45;;;11.30;99.90;;;;;;5081373;28;20036;-62
2020/12/25 03:34:13;;;;;;;22.48;17.30;;;11.40;99.90;;;;;;5101620;28;20061;-61
2020/12/25 03:36:38;;;;;;;21.45;17.23;;;11.20;99.30;;;;;;5083342;28;20036;-61
2020/12/25 03:39:05;;;;;;;22.58;18.10;;;11.20;99.20;;;;;;5091556;28;20044;-61
2020/12/25 03:41:30;;;;;;;24.48;17.50;;;11.10;99.90;;;;;;5094209;28;20051;-62
2020/12/25 03:43:56;;;;;;;21.08;17.25;;;11.20;99.90;;;;;;5095391;28;20089;-62
2020/12/25 03:46:22;;;;;;;20.95;16.35;;;11.10;99.90;;;;;;5091836;28;20032;-62
2020/12/25 03:48:47;;;;;;;20.13;16.40;;;11.20;99.90;;;;;;5101334;28;20054;-61
2020/12/25 03:51:13;;;;;;;20.98;17.42;;;11.30;99.90;;;;;;5100437;28;20123;-61
2020/12/25 03:53:39;;;;;;;20.85;17.63;;;11.30;99.90;;;;;;5100850;28;20047;-62
2020/12/25 03:56:04;;;;;;;19.63;16.67;;;11.30;99.90;;;;;;5081861;28;20169;-62
2020/12/25 03:58:30;;;;;;;18.75;15.95;;;11.30;99.90;;;;;;5094181;28;20047;-62
2020/12/25 04:00:56;;;;;;;20.38;16.95;;;11.20;99.40;;;;;;5100985;28;20039;-61
2020/12/25 04:03:21;;;;;;;19.42;15.40;;;11.30;99.90;;;;;;5100531;28;20048;-62
2020/12/25 04:05:48;;;;;;;17.63;15.73;;;11.30;99.60;;;;;;5100280;28;20127;-61
2020/12/25 04:08:13;;;;;;;17.23;15.18;;;11.30;99.80;;;;;;5094523;28;20541;-61
2020/12/25 04:10:39;;;;;;;17.98;16.10;;;11.40;99.90;;;;;;5095714;28;20644;-62
2020/12/25 04:13:07;;;;;;;17.52;15.02;;;11.40;99.90;;;;;;5094684;28;20043;-62
2020/12/25 04:15:33;;;;;;;16.50;14.20;;;11.40;99.70;;;;;;5103619;28;20036;-62
2020/12/25 04:17:59;;;;;;;18.25;15.38;;;11.40;99.90;;;;;;5096485;28;20366;-62
2020/12/25 04:20:24;;;;;;;18.20;15.13;;;11.40;99.80;;;;;;5087421;28;20413;-62
2020/12/25 04:22:50;;;;;;;18.83;15.88;;;11.40;99.70;;;;;;5098295;28;20036;-62
2020/12/25 04:25:16;;;;;;;19.63;15.63;;;11.40;99.50;;;;;;5100591;27;20035;-62
2020/12/25 04:27:41;;;;;;;16.42;14.73;;;11.40;99.50;;;;;;5099149;28;20051;-61
2020/12/25 04:30:07;;;;;;;18.02;16.10;;;11.40;99.70;;;;;;5102414;27;20390;-62
2020/12/25 04:32:32;;;;;;;20.30;15.10;;;11.40;99.50;;;;;;5093559;27;20405;-62
2020/12/25 04:35:13;;;;;;;20.90;15.50;;;11.40;99.30;;;;;;5099932;27;20508;-62
2020/12/25 04:37:39;;;;;;;17.73;15.10;;;11.50;98.50;;;;;;5093993;28;20378;-62
2020/12/25 04:40:05;;;;;;;16.42;14.68;;;11.50;99.50;;;;;;5083359;28;20519;-62
2020/12/25 04:42:38;;;;;;;17.25;14.93;;;11.50;99.80;;;;;;5097694;27;20151;-62
2020/12/25 04:45:04;;;;;;;16.50;14.00;;;11.50;99.70;;;;;;5099710;28;20047;-62
2020/12/25 04:47:37;;;;;;;18.33;14.60;;;11.50;99.10;;;;;;5099247;28;20052;-63
2020/12/25 04:50:04;;;;;;;18.45;15.40;;;11.50;98.90;;;;;;5095531;28;20294;-62
2020/12/25 04:52:30;;;;;;;17.52;14.25;;;11.40;99.50;;;;;;5101471;28;20389;-62
2020/12/25 04:54:57;;;;;;;18.60;14.70;;;11.40;99.40;;;;;;5081109;28;20042;-62
2020/12/25 04:57:23;;;;;;;16.10;14.40;;;11.40;99.80;;;;;;5094866;28;20122;-62
2020/12/25 04:59:52;;;;;;;17.45;14.25;;;11.40;99.30;;;;;;5084609;28;20135;-62
2020/12/25 05:02:17;;;;;;;16.90;14.68;;;11.40;99.10;;;;;;5104600;28;20042;-61
2020/12/25 05:04:43;;;;;;;16.17;13.80;;;11.40;99.60;;;;;;5091198;28;20487;-62
2020/12/25 05:07:09;;;;;;;19.65;14.88;;;11.40;99.20;;;;;;5087705;28;20469;-62
2020/12/25 05:09:35;;;;;;;16.90;14.73;;;11.40;99.20;;;;;;5085223;28;20046;-62
2020/12/25 05:12:02;;;;;;;16.40;14.43;;;11.30;99.50;;;;;;5087453;28;20038;-62
2020/12/25 05:14:32;;;;;;;14.10;12.65;;;11.30;98.70;;;;;;5085267;28;20028;-61
2020/12/25 05:16:59;;;;;;;16.65;13.95;;;11.30;98.20;;;;;;5091720;28;21758;-61
2020/12/25 05:19:31;;;;;;;18.20;14.13;;;11.20;98.40;;;;;;5080707;27;20416;-62
2020/12/25 05:21:59;;;;;;;15.70;14.05;;;11.30;97.70;;;;;;5103117;28;20118;-61
2020/12/25 05:24:39;;;;;;;16.80;14.07;;;11.20;98.70;;;;;;5095769;28;20051;-62
2020/12/25 05:27:12;;;;;;;17.80;14.65;;;11.10;97.60;;;;;;5098514;28;20047;-62
2020/12/25 05:29:38;;;;;;;17.10;12.82;;;11.20;98.10;;;;;;5100002;28;20054;-62
2020/12/25 05:32:06;;;;;;;16.05;14.05;;;11.20;98.40;;;;;;5096320;28;20028;-62
2020/12/25 05:34:33;;;;;;;19.55;14.52;;;11.30;98.80;;;;;;5078525;28;20642;-62
2020/12/25 05:37:02;;;;;;;17.70;13.77;;;11.20;98.90;;;;;;5103695;27;20038;-62
2020/12/25 05:39:29;;;;;;;16.27;14.02;;;11.30;98.20;;;;;;5100107;27;20077;-62
2020/12/25 05:41:59;;;;;;;16.80;14.25;;;11.20;98.90;;;;;;5083972;28;20127;-62
2020/12/25 05:44:30;;;;;;;18.10;14.38;;;11.30;98.30;;;;;;5101973;28;20039;-62
2020/12/25 05:46:59;;;;;;;17.23;12.88;;;11.40;98.20;;;;;;5094545;28;20027;-62
2020/12/25 05:49:30;;;;;;;19.77;14.82;;;11.20;97.60;;;;;;5094804;28;20054;-62
2020/12/25 05:51:56;;;;;;;16.60;13.50;;;11.20;96.70;;;;;;5097665;28;20043;-62
2020/12/25 05:54:25;;;;;;;16.05;12.98;;;11.20;98.50;;;;;;5083024;28;20104;-62
2020/12/25 05:56:58;;;;;;;15.00;13.00;;;11.20;97.80;;;;;;5096980;28;20043;-62
2020/12/25 05:59:32;;;;;;;16.80;13.77;;;11.20;97.90;;;;;;5096023;28;20047;-62
2020/12/25 06:02:00;;;;;;;15.10;13.50;;;11.30;97.70;;;;;;5101228;27;20032;-62
2020/12/25 06:04:26;;;;;;;16.15;13.73;;;11.30;98.10;;;;;;5098851;28;20481;-62
2020/12/25 06:06:53;;;;;;;16.83;14.63;;;11.30;98.50;;;;;;5081414;28;20058;-62
2020/12/25 06:09:20;;;;;;;19.77;14.40;;;11.30;97.80;;;;;;5099306;28;20378;-62
2020/12/25 06:11:49;;;;;;;18.05;13.65;;;11.30;98.20;;;;;;5075869;28;20442;-61
2020/12/25 06:14:16;;;;;;;16.95;14.50;;;11.30;98.20;;;;;;5102619;28;20537;-62
2020/12/25 06:17:14;;;;;;;16.65;14.85;;;11.20;98.70;;;;;;5080364;28;20044;-61
2020/12/25 06:19:55;;;;;;;17.98;14.70;;;11.20;97.30;;;;;;5099358;28;20489;-61
2020/12/25 06:22:42;;;;;;;17.38;14.55;;;11.30;98.60;;;;;;5098564;28;20051;-61
2020/12/25 06:25:12;;;;;;;18.02;14.98;;;11.20;98.10;;;;;;5106988;27;20533;-61
2020/12/25 06:27:50;;;;;;;15.82;14.13;;;11.10;98.70;;;;;;5092337;28;20136;-62
2020/12/25 06:30:24;;;;;;;16.38;14.27;;;11.20;98.20;;;;;;5060313;28;20031;-62
2020/12/25 06:32:58;;;;;;;18.55;15.32;;;11.10;98.80;;;;;;5097462;28;20463;-61
2020/12/25 06:35:39;;;;;;;18.23;14.90;;;11.10;99.10;;;;;;5103935;28;20149;-62
2020/12/25 06:38:15;;;;;;;18.30;14.43;;;11.20;98.20;;;;;;5093781;28;20038;-61
2020/12/25 06:40:41;;;;;;;16.48;13.75;;;11.10;98.50;;;;;;5085542;28;20048;-61
2020/12/25 06:43:17;;;;;;;18.20;14.07;;;11.10;98.90;;;;;;5093179;28;20028;-62
2020/12/25 06:45:57;;;;;;;19.58;13.82;;;11.10;98.80;;;;;;5101770;28;20389;-62
2020/12/25 06:48:23;;;;;;;17.80;14.48;;;11.10;98.10;;;;;;5094544;28;20038;-62
2020/12/25 06:50:59;;;;;;;16.08;13.65;;;10.90;98.80;;;;;;5082696;28;20031;-61
2020/12/25 06:53:38;;;;;;;15.93;13.95;;;11.00;98.10;;;;;;5090302;28;20043;-62
2020/12/25 06:56:18;;;;;;;16.95;13.68;;;11.10;98.60;;;;;;5098398;28;20043;-61
2020/12/25 06:58:45;;;;;;;16.83;13.50;;;11.10;98.80;;;;;;5094418;28;20120;-62
2020/12/25 07:01:53;;;;;;;14.23;12.52;;;11.00;98.10;;;;;;5103073;28;20435;-62
2020/12/25 07:04:23;;;;;;;15.63;12.80;;;11.10;98.50;;;;;;5042389;28;20039;-61
2020/12/25 07:07:18;;;;;;;12.38;10.93;;;11.00;97.30;;;;;;5104256;28;20031;-62
2020/12/25 07:09:46;;;;;;;12.45;10.40;;;11.00;97.60;;;;;;5088829;28;20040;-62
2020/12/25 07:12:21;;;;;;;13.57;11.75;;;11.00;97.50;;;;;;5099427;28;20115;-61
2020/12/25 07:14:47;;;;;;;17.13;11.98;;;11.10;98.30;;;;;;5098602;28;20032;-61
2020/12/25 07:17:13;;;;;;;11.43;10.32;;;10.80;98.80;;;;;;5078815;28;20039;-62
2020/12/25 07:19:43;;;;;;;12.93;10.95;;;10.90;98.30;;;;;;5097672;28;20048;-62
2020/12/25 07:22:09;;;;;;;12.52;10.52;;;10.90;98.70;;;;;;5074295;28;20458;-61
2020/12/25 07:24:39;;;;;;;11.50;10.30;;;11.00;98.20;;;;;;5096860;28;20024;-61
2020/12/25 07:27:05;;;;;;;13.80;10.82;;;11.10;98.70;;;;;;5102315;28;20130;-61
2020/12/25 07:29:32;;;;;;;11.50;10.30;;;11.10;98.80;;;;;;5096517;28;20489;-62
2020/12/25 07:31:58;;;;;;;10.27;9.18;;;11.10;98.50;;;;;;5101741;28;20035;-62
2020/12/25 07:34:25;;;;;;;10.95;9.80;;;11.20;98.60;;;;;;5095916;28;20066;-61
2020/12/25 07:36:52;;;;;;;10.82;9.73;;;11.20;98.50;;;;;;5101446;28;20040;-62
2020/12/25 07:39:19;;;;;;;12.15;9.73;;;11.20;98.30;;;;;;5100118;28;20409;-61
2020/12/25 07:41:45;;;;;;;11.93;9.50;;;11.10;98.20;;;;;;5098807;28;20044;-62
2020/12/25 07:44:11;;;;;;;12.45;9.75;;;11.10;97.80;;;;;;5102412;28;20046;-62
2020/12/25 07:46:38;;;;;;;14.25;10.40;;;11.10;98.20;;;;;;5098904;28;20035;-62
2020/12/25 07:49:04;;;;;;;11.40;10.18;;;11.10;98.50;;;;;;5101418;28;20130;-62
2020/12/25 07:51:30;;;;;;;11.05;9.30;;;11.10;98.00;;;;;;5102711;28;20043;-61
2020/12/25 07:53:58;;;;;;;11.05;9.38;;;11.00;97.70;;;;;;5104988;27;20115;-61
2020/12/25 07:56:35;;;;;;;11.38;9.63;;;10.90;98.50;;;;;;5095959;28;20085;-61
2020/12/25 07:59:01;;;;;;;11.15;9.10;;;11.00;98.60;;;;;;5103480;28;20047;-61
2020/12/25 08:01:29;;;;;;;11.18;9.15;;;11.00;98.40;;;;;;5096233;28;20520;-62
2020/12/25 08:03:57;;;;;;;11.60;9.50;;;11.00;98.00;;;;;;5089080;28;20100;-62
2020/12/25 08:06:25;;;;;;;10.95;9.80;;;10.90;98.50;;;;;;5099552;28;20055;-62
2020/12/25 08:09:05;;;;;;;13.70;10.98;;;10.90;97.70;;;;;;5102314;28;20073;-62
2020/12/25 08:11:32;;;;;;;10.80;9.20;;;10.90;96.80;;;;;;5100517;27;20044;-62
2020/12/25 08:14:10;;;;;;;11.35;9.55;;;10.90;98.40;;;;;;5101907;28;20519;-62
2020/12/25 08:16:42;;;;;;;10.85;9.68;;;11.00;97.90;;;;;;5098920;28;20036;-62
2020/12/25 08:19:07;;;;;;;10.32;8.70;;;11.10;98.30;;;;;;5103338;27;20070;-62
2020/12/25 08:21:36;;;;;;;10.55;9.15;;;11.10;98.40;;;;;;5102084;27;20035;-62
2020/12/25 08:24:02;;;;;;;14.40;10.38;;;11.20;98.30;;;;;;5099592;27;20063;-62
2020/12/25 08:26:36;;;;;;;9.80;8.75;;;11.20;98.00;;;;;;5098852;28;20087;-62
2020/12/25 08:29:01;;;;;;;12.03;9.33;;;11.10;97.50;;;;;;5104712;27;20040;-62
2020/12/25 08:31:47;;;;;;;10.60;8.68;;;11.20;98.50;;;;;;5098145;27;20040;-62
2020/12/25 08:34:21;;;;;;;12.27;9.88;;;11.20;98.00;;;;;;5042394;28;20041;-61
2020/12/25 08:36:57;;;;;;;12.45;10.20;;;11.20;98.20;;;;;;5041921;28;20544;-62
2020/12/25 08:39:30;;;;;;;12.60;11.25;;;11.30;98.30;;;;;;5044233;28;20379;-62
2020/12/25 08:41:57;;;;;;;15.93;14.10;;;11.30;98.20;;;;;;5039367;28;20158;-62
2020/12/25 08:44:23;;;;;;;18.25;15.30;;;11.30;98.90;;;;;;5045676;28;20136;-62
2020/12/25 08:46:49;;;;;;;18.00;14.75;;;11.30;98.80;;;;;;5043865;28;20051;-62
2020/12/25 08:49:28;;;;;;;17.73;15.57;;;11.40;99.10;;;;;;5041428;28;20061;-62
2020/12/25 08:51:53;;;;;;;19.58;17.27;;;11.40;98.60;;;;;;5044527;28;20434;-62
2020/12/25 08:54:30;;;;;;;11.90;10.00;;;11.40;98.80;;;;;;5038342;28;20033;-62
2020/12/25 08:56:56;;;;;;;10.18;7.88;;;11.30;96.80;;;;;;5026262;28;20637;-62
2020/12/25 08:59:22;;;;;;;11.30;8.63;;;11.10;97.90;;;;;;5029157;28;20049;-62
2020/12/25 09:01:50;;;;;;;9.73;8.00;;;11.10;97.60;;;;;;5042925;28;20064;-61
2020/12/25 09:04:18;;;;;;;10.00;8.75;;;11.00;98.30;;;;;;5043971;27;20041;-61
2020/12/25 09:06:45;;;;;;;12.60;8.98;;;11.00;98.20;;;;;;5104740;27;20028;-61
2020/12/25 09:09:12;;;;;;;11.02;8.10;;;10.90;98.90;;;;;;5086985;28;20122;-61
2020/12/25 09:11:37;;;;;;;11.18;8.95;;;11.00;98.60;;;;;;5077403;28;20032;-61
2020/12/25 09:14:03;;;;;;;10.82;9.23;;;11.10;99.20;;;;;;5094808;27;20035;-62
2020/12/25 09:16:29;;;;;;;10.32;8.65;;;11.10;99.30;;;;;;5103755;27;20040;-61
2020/12/25 09:18:56;;;;;;;11.82;9.98;;;11.10;99.30;;;;;;5081563;28;20040;-62
2020/12/25 09:21:21;;;;;;;13.45;10.75;;;11.00;98.70;;;;;;5105167;27;20072;-61
2020/12/25 09:23:47;;;;;;;14.30;11.13;;;11.10;99.40;;;;;;5096793;28;20091;-61
2020/12/25 09:26:14;;;;;;;6.60;5.70;;;11.10;99.20;;;;;;5099045;28;20465;-60
2020/12/25 09:28:40;;;;;;;5.32;4.80;;;11.00;95.10;;;;;;5098654;27;20044;-62
2020/12/25 09:31:08;;;;;;;4.82;3.78;;;11.00;95.10;;;;;;5100546;28;20196;-61
2020/12/25 09:33:35;;;;;;;5.95;4.50;;;10.90;94.90;;;;;;5094776;28;20088;-61
2020/12/25 09:36:05;;;;;;;7.60;4.32;;;10.90;97.00;;;;;;5097659;27;20051;-61
2020/12/25 09:38:31;;;;;;;6.53;4.55;;;10.90;95.30;;;;;;5105585;27;20047;-60
2020/12/25 09:40:57;;;;;;;6.07;4.78;;;11.00;96.00;;;;;;5094426;28;20028;-60
2020/12/25 09:43:23;;;;;;;5.85;4.63;;;11.10;96.80;;;;;;5106148;28;20037;-61
2020/12/25 09:45:49;;;;;;;7.40;4.68;;;11.10;96.50;;;;;;5092698;28;20047;-61
2020/12/25 09:48:15;;;;;;;5.53;4.68;;;11.10;95.90;;;;;;5096754;28;20028;-60
2020/12/25 09:50:44;;;;;;;8.00;5.60;;;11.10;96.30;;;;;;5098831;28;20046;-60
2020/12/25 09:53:10;;;;;;;6.07;4.70;;;11.20;96.50;;;;;;5097913;28;20044;-61
2020/12/25 09:55:38;;;;;;;5.93;4.60;;;11.10;96.60;;;;;;5093956;28;20089;-61
2020/12/25 09:58:04;;;;;;;6.10;4.13;;;11.10;95.60;;;;;;5099125;27;20119;-61
2020/12/25 10:00:30;;;;;;;4.57;2.50;;;11.00;95.90;;;;;;5095578;27;22086;-61
2020/12/25 10:02:57;;;;;;;3.85;2.33;;;10.90;95.40;;;;;;5082634;28;20038;-60
2020/12/25 10:05:22;;;;;;;4.35;2.17;;;10.70;95.40;;;;;;5096353;27;20032;-61
2020/12/25 10:07:52;;;;;;;2.83;0.85;;;10.60;96.70;;;;;;5094358;27;20044;-61
2020/12/25 10:10:18;;;;;;;1.20;0.52;;;10.50;95.60;;;;;;5097417;27;20036;-61
2020/12/25 10:12:43;;;;;;;1.70;1.20;;;10.40;94.80;;;;;;5099447;28;20154;-61
2020/12/25 10:15:09;;;;;;;0.45;0.20;;;10.20;95.70;;;;;;5094083;27;20127;-61
2020/12/25 10:17:35;;;;;;;0.30;0.10;;;10.00;95.40;;;;;;5099469;27;20036;-60
2020/12/25 10:20:01;;;;;;;0.25;0.10;;;10.10;96.20;;;;;;5100335;27;20052;-61
2020/12/25 10:22:26;;;;;;;0.10;0.10;;;10.10;96.80;;;;;;5097611;27;20039;-61
2020/12/25 10:24:52;;;;;;;0.73;0.10;;;10.00;96.70;;;;;;5101325;27;20047;-61
2020/12/25 10:27:18;;;;;;;0.82;0.20;;;9.60;99.40;;;;;;5082694;28;20096;-61
2020/12/25 10:29:44;;;;;;;0.88;0.68;;;9.50;99.90;;;;;;5091935;28;20096;-61
2020/12/25 10:32:09;;;;;;;5.53;1.17;;;9.70;99.90;;;;;;5097093;28;20051;-61
2020/12/25 10:34:35;;;;;;;0.22;0.10;;;9.60;99.90;;;;;;5101043;28;20039;-62
2020/12/25 10:37:01;;;;;;;0.90;0.30;;;9.60;99.90;;;;;;5097663;28;20039;-61
2020/12/25 10:39:28;;;;;;;0.40;0.13;;;9.70;99.30;;;;;;5089513;28;20043;-62
2020/12/25 10:41:53;;;;;;;0.88;0.20;;;9.70;97.90;;;;;;5097006;28;20027;-60
2020/12/25 10:44:19;;;;;;;0.32;0.20;;;9.70;97.90;;;;;;5096728;27;20040;-61
2020/12/25 10:46:44;;;;;;;3.00;0.40;;;9.60;96.60;;;;;;5099235;27;20044;-60
2020/12/25 10:49:10;;;;;;;0.30;0.20;;;9.70;96.80;;;;;;5074591;28;20055;-61
2020/12/25 10:51:36;;;;;;;0.95;0.28;;;9.50;95.70;;;;;;5099465;28;20047;-61
2020/12/25 10:54:01;;;;;;;0.20;0.10;;;9.50;97.30;;;;;;5096006;28;20173;-61
2020/12/25 10:56:31;;;;;;;0.93;0.22;;;9.50;97.40;;;;;;5083273;28;20035;-61
2020/12/25 10:58:57;;;;;;;0.13;0.10;;;9.30;93.60;;;;;;5079089;28;20039;-61
2020/12/25 11:01:27;;;;;;;0.20;0.20;;;9.10;95.60;;;;;;5095887;28;20048;-61
2020/12/25 11:03:54;;;;;;;0.40;0.20;;;9.30;96.50;;;;;;5098010;28;20032;-61
2020/12/25 11:06:32;;;;;;;0.20;0.10;;;9.30;96.50;;;;;;5082693;28;20050;-61
2020/12/25 11:08:58;;;;;;;1.80;0.50;;;9.40;96.10;;;;;;5093403;28;20040;-61
2020/12/25 11:11:29;;;;;;;2.20;0.52;;;9.30;96.40;;;;;;5097502;28;20122;-61
2020/12/25 11:13:55;;;;;;;1.42;0.30;;;8.90;94.70;;;;;;5094013;28;20031;-61
2020/12/25 11:16:25;;;;;;;1.80;0.50;;;8.70;99.30;;;;;;5082848;28;20450;-61
2020/12/25 11:22:14;;;;;;;2.20;0.70;;;8.80;99.90;;;;;;5036431;28;20106;-62
2020/12/25 11:24:44;;;;;;;1.80;0.70;;;8.60;99.90;;;;;;5097257;28;20040;-62
2020/12/25 11:27:10;;;;;;;1.20;0.50;;;8.40;99.90;;;;;;5102266;28;20093;-62
2020/12/25 11:32:58;;;;;;;1.53;0.30;;;8.20;99.90;;;;;;5050758;28;20038;-62
2020/12/25 11:35:23;;;;;;;3.77;0.93;;;8.20;99.90;;;;;;5097699;28;20111;-62
2020/12/25 11:37:49;;;;;;;1.43;0.23;;;8.30;99.90;;;;;;5088997;28;20028;-63
2020/12/25 11:40:15;;;;;;;7.63;1.00;;;8.20;99.90;;;;;;5078560;28;20093;-63
2020/12/25 11:42:40;;;;;;;3.73;0.40;;;8.20;99.90;;;;;;5101268;28;20032;-63
2020/12/25 11:45:06;;;;;;;2.13;0.40;;;8.20;99.90;;;;;;5099821;28;20038;-64
2020/12/25 11:47:32;;;;;;;1.57;0.37;;;8.10;99.90;;;;;;5094552;28;20040;-63
2020/12/25 11:49:58;;;;;;;1.70;0.40;;;8.10;99.90;;;;;;5096711;28;20043;-63
2020/12/25 11:52:24;;;;;;;7.77;0.97;;;8.10;99.90;;;;;;5098373;27;20114;-63
2020/12/25 11:54:50;;;;;;;3.80;0.77;;;8.10;99.90;;;;;;5097296;27;20047;-63
2020/12/25 11:57:16;;;;;;;2.27;0.67;;;8.00;99.90;;;;;;5100657;28;20032;-62
2020/12/25 11:59:41;;;;;;;0.33;0.33;;;8.10;99.90;;;;;;5098637;28;20040;-61
2020/12/25 12:02:07;;;;;;;2.07;0.50;;;8.10;99.90;;;;;;5081894;28;20040;-62
2020/12/25 12:04:32;;;;;;;0.87;0.37;;;8.20;99.90;;;;;;5095834;28;20032;-63
2020/12/25 12:06:58;;;;;;;1.60;0.53;;;8.10;99.90;;;;;;5096098;28;20118;-63
2020/12/25 12:09:24;;;;;;;0.93;0.20;;;8.10;99.90;;;;;;5106086;27;20481;-63
2020/12/25 12:11:50;;;;;;;1.60;0.47;;;8.10;99.90;;;;;;5099649;28;20040;-63
2020/12/25 12:14:15;;;;;;;1.20;0.50;;;7.90;99.90;;;;;;5103313;28;20541;-62
2020/12/25 12:16:41;;;;;;;1.47;0.97;;;8.10;99.90;;;;;;5094455;28;20500;-63
2020/12/25 12:19:07;;;;;;;0.83;0.40;;;8.20;99.90;;;;;;5101721;28;20054;-63
2020/12/25 12:21:32;;;;;;;0.77;0.20;;;8.20;99.90;;;;;;5096740;27;20036;-63
2020/12/25 12:23:58;;;;;;;1.00;0.20;;;8.20;99.90;;;;;;5095898;28;20031;-63
2020/12/25 12:27:03;;;;;;;1.20;0.23;;;8.20;99.90;;;;;;5097576;27;20092;-62
2020/12/25 12:29:30;;;;;;;0.20;0.20;;;8.30;99.90;;;;;;5040301;28;20040;-63
2020/12/25 12:31:55;;;;;;;1.40;0.20;;;8.30;99.90;;;;;;5054023;28;20333;-62
2020/12/25 12:34:21;;;;;;;1.53;0.10;;;8.20;99.90;;;;;;5051320;28;20044;-63
2020/12/25 12:36:46;;;;;;;0.23;0.20;;;7.90;99.90;;;;;;5064212;28;20048;-63
2020/12/25 12:39:12;;;;;;;1.17;0.20;;;8.00;99.90;;;;;;5048222;28;20105;-63
2020/12/25 12:41:38;;;;;;;0.37;0.23;;;8.00;99.90;;;;;;5058329;28;20421;-63
2020/12/25 12:44:03;;;;;;;0.90;0.90;;;8.10;99.90;;;;;;5054251;28;20041;-63
2020/12/25 12:46:29;;;;;;;0.40;0.30;;;8.20;99.90;;;;;;5049873;28;20049;-63
2020/12/25 12:48:55;;;;;;;1.20;1.10;;;8.20;99.90;;;;;;5050222;28;20123;-63
2020/12/25 12:51:20;;;;;;;3.27;0.90;;;8.20;99.90;;;;;;5051133;28;20378;-63
2020/12/25 12:53:46;;;;;;;0.70;0.50;;;8.20;99.90;;;;;;5051244;28;20040;-62
2020/12/25 12:56:12;;;;;;;2.20;0.33;;;8.20;99.90;;;;;;5049438;28;20135;-62
2020/12/25 12:58:38;;;;;;;0.37;0.30;;;8.30;99.90;;;;;;5058217;28;20509;-63
2020/12/25 13:01:03;;;;;;;0.70;0.23;;;8.30;99.90;;;;;;5049380;28;20107;-62